No1 Tokuyama — JK5318 — position and weather

sailwx.info

Track history (hours):
 
Tides and Currents Weather Stations Pressure Air Temp Water Temp Dewpoint Dewpoint Depression Visibility Wind Speed Wind Dir Waves Ship Positions

No1 Tokuyama

Last reported at 2016-Dec-04 02:17 UTC. Time now 2016-Dec-07 22:13 UTC.
Position N 34°33' E 134°47'.

Length 110 m; draft 6 m.

Type: Cargo ship. MMSI: 431400487.

Date/timePositionNaut miles runAvg speedWind from/ knotsBaromVisibWave heightAir tempDewpointWater temp
2016-Dec-04 02:17N 34°33' E 134°47'1216.2
2016-Dec-04 01:32N 34°38' E 135°00'1414.0
2016-Dec-04 00:33N 34°37' E 135°17'8 7.9
2016-Dec-03 23:32N 34°39' E 135°27'0 0.0
2016-Dec-03 22:32N 34°39' E 135°27'0 0.0
2016-Dec-03 21:32N 34°39' E 135°27'0 0.0
2016-Dec-03 20:32N 34°39' E 135°27'0 0.0
2016-Dec-03 19:26N 34°39' E 135°27'0 0.0
2016-Dec-03 18:32N 34°39' E 135°27'0 0.0
2016-Dec-03 17:32N 34°39' E 135°27'0 0.0
2016-Dec-03 16:32N 34°39' E 135°27'0 0.0
2016-Dec-03 15:32N 34°39' E 135°27'0 0.0
2016-Dec-03 14:32N 34°39' E 135°27'0 0.0
2016-Dec-03 13:32N 34°39' E 135°27'0 0.0
2016-Dec-03 12:20N 34°39' E 135°27'0 0.0
2016-Dec-03 11:32N 34°39' E 135°27'0 0.0
2016-Dec-03 10:20N 34°39' E 135°27'0 0.0
2016-Dec-03 09:32N 34°39' E 135°27'0 0.0
2016-Dec-03 08:33N 34°39' E 135°27'8 7.7
2016-Dec-03 07:33N 34°36' E 135°18'1312.8
2016-Dec-03 06:33N 34°36' E 135°03'11 0.3
2016-Dec-01 10:33N 34°34' E 134°49'1212.3
2016-Dec-01 09:33N 34°36' E 135°03'1212.4
2016-Dec-01 08:33N 34°32' E 135°18'5 4.3
2016-Dec-01 07:18N 34°28' E 135°22'0 0.0
2016-Dec-01 06:30N 34°28' E 135°22'0 0.0
2016-Dec-01 05:24N 34°28' E 135°22'1 1.0
2016-Dec-01 04:32N 34°29' E 135°22'1010.2
2016-Dec-01 03:33N 34°39' E 135°25'1 1.0
2016-Dec-01 02:23N 34°39' E 135°27'0 0.0
2016-Dec-01 01:29N 34°39' E 135°27'0 0.0
2016-Dec-01 00:29N 34°39' E 135°27'0 0.0
2016-Nov-30 23:23N 34°39' E 135°27'0 0.0
2016-Nov-30 22:29N 34°39' E 135°27'4 4.1
2016-Nov-30 21:29N 34°37' E 135°22'0 0.1
2016-Nov-30 20:29N 34°37' E 135°22'0 0.0
2016-Nov-30 19:29N 34°37' E 135°22'0 0.0
2016-Nov-30 18:23N 34°37' E 135°22'0 0.0
2016-Nov-30 17:29N 34°37' E 135°22'1 0.9
2016-Nov-30 16:33N 34°37' E 135°21'1211.8
2016-Nov-30 15:33N 34°35' E 135°07'1212.4
2016-Nov-30 14:33N 34°34' E 134°52'7 0.2
2016-Nov-28 22:25N 34°32' E 134°44'1416.4
2016-Nov-28 21:33N 34°38' E 134°60'1413.9
2016-Nov-28 20:33N 34°36' E 135°17'8 8.4
2016-Nov-28 19:33N 34°39' E 135°27'0 0.0
2016-Nov-28 18:32N 34°39' E 135°27'0 0.0
2016-Nov-28 17:32N 34°39' E 135°27'0 0.0
2016-Nov-28 16:26N 34°39' E 135°27'0 0.0
2016-Nov-28 15:32N 34°39' E 135°27'0 0.0
2016-Nov-28 14:32N 34°39' E 135°27'0 0.0
2016-Nov-28 13:32N 34°39' E 135°27'0 0.0
2016-Nov-28 12:33N 34°39' E 135°27'8 7.7
2016-Nov-28 11:33N 34°34' E 135°19'1212.2
2016-Nov-28 10:33N 34°26' E 135°08'1312.3
2016-Nov-28 09:30N 34°15' E 134°59'1212.2
2016-Nov-28 08:33N 34°04' E 134°58'  
Track history (hours):
 
Tides and Currents Weather Stations Pressure Air Temp Water Temp Dewpoint Dewpoint Depression Visibility Wind Speed Wind Dir Waves Ship Positions

No1 Tokuyama

Last reported at 2016-Dec-04 02:17 UTC. Time now 2016-Dec-07 22:13 UTC.
Position N 34°33' E 134°47'.

Length 110 m; draft 6 m.

Type: Cargo ship. MMSI: 431400487.

Date/timePositionNaut miles runAvg speedWind from/ knotsBaromVisibWave heightAir tempDewpointWater temp
2016-Dec-04 02:17N 34°33' E 134°47'1216.2
2016-Dec-04 01:32N 34°38' E 135°00'1414.0
2016-Dec-04 00:33N 34°37' E 135°17'8 7.9
2016-Dec-03 23:32N 34°39' E 135°27'0 0.0
2016-Dec-03 22:32N 34°39' E 135°27'0 0.0
2016-Dec-03 21:32N 34°39' E 135°27'0 0.0
2016-Dec-03 20:32N 34°39' E 135°27'0 0.0
2016-Dec-03 19:26N 34°39' E 135°27'0 0.0
2016-Dec-03 18:32N 34°39' E 135°27'0 0.0
2016-Dec-03 17:32N 34°39' E 135°27'0 0.0
2016-Dec-03 16:32N 34°39' E 135°27'0 0.0
2016-Dec-03 15:32N 34°39' E 135°27'0 0.0
2016-Dec-03 14:32N 34°39' E 135°27'0 0.0
2016-Dec-03 13:32N 34°39' E 135°27'0 0.0
2016-Dec-03 12:20N 34°39' E 135°27'0 0.0
2016-Dec-03 11:32N 34°39' E 135°27'0 0.0
2016-Dec-03 10:20N 34°39' E 135°27'0 0.0
2016-Dec-03 09:32N 34°39' E 135°27'0 0.0
2016-Dec-03 08:33N 34°39' E 135°27'8 7.7
2016-Dec-03 07:33N 34°36' E 135°18'1312.8
2016-Dec-03 06:33N 34°36' E 135°03'11 0.3
2016-Dec-01 10:33N 34°34' E 134°49'1212.3
2016-Dec-01 09:33N 34°36' E 135°03'1212.4
2016-Dec-01 08:33N 34°32' E 135°18'5 4.3
2016-Dec-01 07:18N 34°28' E 135°22'0 0.0
2016-Dec-01 06:30N 34°28' E 135°22'0 0.0
2016-Dec-01 05:24N 34°28' E 135°22'1 1.0
2016-Dec-01 04:32N 34°29' E 135°22'1010.2
2016-Dec-01 03:33N 34°39' E 135°25'1 1.0
2016-Dec-01 02:23N 34°39' E 135°27'0 0.0
2016-Dec-01 01:29N 34°39' E 135°27'0 0.0
2016-Dec-01 00:29N 34°39' E 135°27'0 0.0
2016-Nov-30 23:23N 34°39' E 135°27'0 0.0
2016-Nov-30 22:29N 34°39' E 135°27'4 4.1
2016-Nov-30 21:29N 34°37' E 135°22'0 0.1
2016-Nov-30 20:29N 34°37' E 135°22'0 0.0
2016-Nov-30 19:29N 34°37' E 135°22'0 0.0
2016-Nov-30 18:23N 34°37' E 135°22'0 0.0
2016-Nov-30 17:29N 34°37' E 135°22'1 0.9
2016-Nov-30 16:33N 34°37' E 135°21'1211.8
2016-Nov-30 15:33N 34°35' E 135°07'1212.4
2016-Nov-30 14:33N 34°34' E 134°52'7 0.2
2016-Nov-28 22:25N 34°32' E 134°44'1416.4
2016-Nov-28 21:33N 34°38' E 134°60'1413.9
2016-Nov-28 20:33N 34°36' E 135°17'8 8.4
2016-Nov-28 19:33N 34°39' E 135°27'0 0.0
2016-Nov-28 18:32N 34°39' E 135°27'0 0.0
2016-Nov-28 17:32N 34°39' E 135°27'0 0.0
2016-Nov-28 16:26N 34°39' E 135°27'0 0.0
2016-Nov-28 15:32N 34°39' E 135°27'0 0.0
2016-Nov-28 14:32N 34°39' E 135°27'0 0.0
2016-Nov-28 13:32N 34°39' E 135°27'0 0.0
2016-Nov-28 12:33N 34°39' E 135°27'8 7.7
2016-Nov-28 11:33N 34°34' E 135°19'1212.2
2016-Nov-28 10:33N 34°26' E 135°08'1312.3
2016-Nov-28 09:30N 34°15' E 134°59'1212.2
2016-Nov-28 08:33N 34°04' E 134°58'  

Dump ship's entire track history